createdAt,value
2023-05-21T00:00:09.478Z,92.79
2023-05-21T00:03:10.072Z,92.79
2023-05-21T00:06:17.886Z,92.68
2023-05-21T00:10:04.823Z,92.68
2023-05-21T00:13:12.525Z,92.79
2023-05-21T00:16:20.962Z,93.19
2023-05-21T00:19:29.905Z,93.29
2023-05-21T00:22:38.810Z,93.50
2023-05-21T00:25:48.437Z,93.64
2023-05-21T00:28:56.826Z,93.80
2023-05-21T00:32:06.054Z,93.70
2023-05-21T00:35:15.592Z,93.70
2023-05-21T00:38:25.081Z,93.74
2023-05-21T00:41:34.020Z,94.05
2023-05-21T00:44:43.540Z,94.15
2023-05-21T00:47:52.804Z,94.35
2023-05-21T00:51:02.432Z,94.56
2023-05-21T00:54:12.434Z,94.76
2023-05-21T00:57:21.141Z,94.56
2023-05-21T01:00:29.531Z,94.66
2023-05-21T01:03:38.931Z,94.46
2023-05-21T01:06:47.903Z,94.60
2023-05-21T01:09:56.078Z,94.91
2023-05-21T01:13:04.604Z,95.12
2023-05-21T01:16:14.853Z,95.21
2023-05-21T01:19:23.872Z,95.42
2023-05-21T01:22:32.346Z,95.77
2023-05-21T01:25:32.398Z,95.77
2023-05-21T01:28:40.742Z,96.08
2023-05-21T01:31:48.722Z,96.28
2023-05-21T01:34:58.896Z,96.63
2023-05-21T01:38:07.676Z,96.63
2023-05-21T01:41:15.617Z,96.84
2023-05-21T01:44:26.765Z,97.04
2023-05-21T01:47:35.392Z,97.04
2023-05-21T01:50:43.731Z,96.94
2023-05-21T01:53:52.636Z,96.94
2023-05-21T01:57:02.670Z,97.04
2023-05-21T02:00:11.353Z,97.04
2023-05-21T02:03:20.467Z,97.04
2023-05-21T02:06:19.667Z,97.14
2023-05-21T02:09:27.956Z,97.39
2023-05-21T02:12:37.351Z,97.49
2023-05-21T02:15:37.525Z,97.70
2023-05-21T02:18:46.062Z,97.90
2023-05-21T02:21:54.951Z,98.00
2023-05-21T02:25:05.242Z,98.15
2023-05-21T02:28:13.442Z,98.36
2023-05-21T02:31:21.863Z,98.77
2023-05-21T02:34:30.798Z,98.86
2023-05-21T02:37:39.937Z,98.86
2023-05-21T02:40:48.765Z,99.27
2023-05-21T02:43:57.281Z,99.43
2023-05-21T02:47:06.941Z,99.22
2023-05-21T02:50:15.054Z,99.43
2023-05-21T02:53:23.557Z,99.84
2023-05-21T02:56:33.810Z,99.73
2023-05-21T02:59:42.092Z,99.73
2023-05-21T03:02:50.834Z,99.84
2023-05-21T03:06:00.560Z,99.99
2023-05-21T03:09:08.974Z,99.99
2023-05-21T03:12:17.556Z,99.99
2023-05-21T03:15:25.875Z,99.99
2023-05-21T03:18:36.119Z,99.99
2023-05-21T03:21:44.912Z,99.99
2023-05-21T03:24:52.850Z,99.99
2023-05-21T03:28:03.473Z,99.99
2023-05-21T03:31:12.204Z,99.99
2023-05-21T03:34:20.602Z,99.99
2023-05-21T03:37:20.870Z,99.99
2023-05-21T03:40:29.199Z,99.99
2023-05-21T03:43:38.625Z,99.99
2023-05-21T03:46:38.902Z,99.99
2023-05-21T03:49:47.802Z,99.99
2023-05-21T03:52:55.702Z,99.99
2023-05-21T03:56:04.549Z,99.99
2023-05-21T03:59:14.519Z,99.99
2023-05-21T04:02:22.780Z,99.89
2023-05-21T04:05:32.105Z,99.64
2023-05-21T04:08:41.838Z,99.23
2023-05-21T04:11:50.853Z,98.88
2023-05-21T04:14:59.211Z,98.77
2023-05-21T04:18:09.111Z,98.47
2023-05-21T04:21:16.920Z,98.36
2023-05-21T04:24:25.820Z,98.27
2023-05-21T04:27:36.088Z,98.32
2023-05-21T04:30:44.082Z,98.02
2023-05-21T04:33:53.446Z,97.91
2023-05-21T04:37:03.298Z,97.56
2023-05-21T04:40:11.506Z,97.56
2023-05-21T04:43:20.470Z,97.31
2023-05-21T04:46:28.865Z,96.91
2023-05-21T04:49:38.588Z,96.91
2023-05-21T04:52:47.063Z,96.66
2023-05-21T04:55:55.424Z,96.45
2023-05-21T04:59:05.603Z,96.10
2023-05-21T05:02:13.799Z,95.69
2023-05-21T05:05:22.740Z,95.79
2023-05-21T05:08:32.741Z,95.75
2023-05-21T05:11:40.980Z,95.45
2023-05-21T05:14:49.537Z,95.00
2023-05-21T05:17:49.498Z,93.98
2023-05-21T05:20:58.157Z,94.24
2023-05-21T05:24:06.601Z,93.83
2023-05-21T05:27:15.203Z,93.63
2023-05-21T05:30:24.921Z,93.63
2023-05-21T05:33:32.734Z,93.32
2023-05-21T05:36:41.569Z,93.38
2023-05-21T05:39:51.395Z,93.38
2023-05-21T05:43:00.088Z,93.38
2023-05-21T05:46:08.575Z,93.28
2023-05-21T05:49:18.565Z,93.13
2023-05-21T05:52:28.453Z,92.83
2023-05-21T05:55:37.000Z,92.48
2023-05-21T05:58:46.559Z,92.13
2023-05-21T06:01:49.945Z,91.52
2023-05-21T06:04:59.487Z,91.63
2023-05-21T06:08:07.395Z,91.17
2023-05-21T06:11:17.711Z,90.57
2023-05-21T06:15:05.037Z,90.57
2023-05-21T06:18:13.532Z,90.53
2023-05-21T06:21:23.223Z,90.12
2023-05-21T06:24:32.015Z,90.02
2023-05-21T06:27:40.221Z,89.61
2023-05-21T06:30:50.496Z,89.57
2023-05-21T06:33:58.294Z,88.76
2023-05-21T06:37:07.193Z,88.62
2023-05-21T06:40:07.160Z,88.31
2023-05-21T06:43:14.908Z,87.91
2023-05-21T06:46:23.374Z,87.51
2023-05-21T06:49:33.548Z,87.46
2023-05-21T06:52:41.732Z,86.71
2023-05-21T06:55:50.715Z,85.86
2023-05-21T06:58:58.430Z,85.11
2023-05-21T07:02:08.070Z,84.67
2023-05-21T07:05:17.141Z,83.82
2023-05-21T07:08:25.465Z,83.28
2023-05-21T07:11:35.257Z,83.54
2023-05-21T07:14:43.843Z,80.88
2023-05-21T07:17:52.188Z,80.84
2023-05-21T07:21:02.020Z,80.84
2023-05-21T07:24:10.561Z,80.40
2023-05-21T07:30:23.868Z,78.91
2023-05-21T07:33:32.578Z,78.61
2023-05-21T07:36:40.999Z,79.22
2023-05-21T07:39:50.350Z,78.91
2023-05-21T07:42:59.264Z,78.91
2023-05-21T07:46:07.526Z,78.41
2023-05-21T07:49:15.747Z,78.58
2023-05-21T07:52:25.640Z,77.77
2023-05-21T07:55:33.821Z,78.61
2023-05-21T07:58:42.587Z,78.27
2023-05-21T08:01:44.438Z,77.43
2023-05-21T08:04:53.158Z,77.13
2023-05-21T08:08:01.844Z,77.43
2023-05-21T08:11:12.394Z,77.53
2023-05-21T08:14:20.817Z,77.20
2023-05-21T08:17:29.360Z,75.95
2023-05-21T08:20:39.217Z,76.59
2023-05-21T08:23:47.888Z,76.29
2023-05-21T08:26:56.153Z,76.79
2023-05-21T08:30:04.497Z,76.89
2023-05-21T08:33:14.364Z,76.62
2023-05-21T08:36:22.201Z,75.38
2023-05-21T08:39:30.466Z,74.77
2023-05-21T08:42:37.011Z,76.15
2023-05-21T08:45:35.231Z,75.07
2023-05-21T08:48:44.985Z,73.33
2023-05-21T08:51:54.792Z,71.69
2023-05-21T08:55:03.445Z,71.76
2023-05-21T08:58:12.230Z,70.92
2023-05-21T09:01:24.144Z,71.23
2023-05-21T09:04:23.757Z,71.12
2023-05-21T09:07:32.376Z,72.16
2023-05-21T09:10:41.082Z,72.63
2023-05-21T09:13:50.862Z,71.59
2023-05-21T09:16:59.298Z,70.53
2023-05-21T09:20:07.651Z,70.36
2023-05-21T09:23:17.203Z,69.43
2023-05-21T09:26:26.273Z,68.10
2023-05-21T09:29:34.901Z,68.06
2023-05-21T09:32:43.962Z,67.36
2023-05-21T09:35:52.516Z,65.83
2023-05-21T09:39:01.579Z,66.63
2023-05-21T09:45:23.343Z,63.45
2023-05-21T09:48:31.399Z,63.15
2023-05-21T09:51:40.919Z,64.15
2023-05-21T09:54:49.429Z,63.82
2023-05-21T09:57:57.009Z,63.69
2023-05-21T10:01:05.508Z,63.19
2023-05-21T10:04:15.076Z,62.79
2023-05-21T10:07:23.730Z,62.19
2023-05-21T10:10:31.360Z,62.52
2023-05-21T10:13:41.427Z,63.52
2023-05-21T10:16:49.159Z,63.29
2023-05-21T10:19:58.528Z,63.06
2023-05-21T10:23:08.363Z,61.77
2023-05-21T10:26:16.532Z,62.40
2023-05-21T10:29:25.330Z,62.49
2023-05-21T10:32:35.667Z,62.16
2023-05-21T10:35:44.297Z,61.01
2023-05-21T10:38:52.888Z,60.71
2023-05-21T10:42:00.724Z,59.86
2023-05-21T10:45:10.546Z,57.95
2023-05-21T10:48:18.714Z,58.54
2023-05-21T10:51:26.965Z,57.92
2023-05-21T10:54:36.769Z,56.80
2023-05-21T10:57:45.445Z,57.23
2023-05-21T11:00:53.786Z,57.69
2023-05-21T11:04:04.301Z,56.40
2023-05-21T11:07:12.102Z,56.38
2023-05-21T11:10:20.727Z,55.78
2023-05-21T11:13:30.294Z,56.28
2023-05-21T11:16:38.894Z,53.78
2023-05-21T11:19:47.712Z,54.49
2023-05-21T11:22:56.810Z,54.22
2023-05-21T11:26:05.873Z,55.09
2023-05-21T11:29:13.888Z,54.77
2023-05-21T11:32:22.598Z,56.05
2023-05-21T11:35:32.151Z,54.47
2023-05-21T11:38:40.159Z,55.06
2023-05-21T11:41:48.883Z,54.47
2023-05-21T11:44:58.445Z,54.17
2023-05-21T11:48:07.146Z,54.05
2023-05-21T11:51:16.048Z,52.81
2023-05-21T11:54:25.489Z,49.20
2023-05-21T11:57:33.981Z,50.26
2023-05-21T12:00:42.106Z,49.99
2023-05-21T12:03:52.397Z,50.88
2023-05-21T12:07:01.724Z,50.85
2023-05-21T12:10:09.447Z,50.34
2023-05-21T12:13:18.066Z,48.61
2023-05-21T12:16:28.142Z,49.02
2023-05-21T12:19:36.176Z,50.01
2023-05-21T12:22:44.546Z,47.18
2023-05-21T12:25:53.997Z,47.85
2023-05-21T12:29:01.668Z,46.64
2023-05-21T12:32:10.353Z,48.19
2023-05-21T12:35:20.164Z,49.92
2023-05-21T12:38:29.096Z,48.32
2023-05-21T12:41:37.251Z,47.72
2023-05-21T12:44:46.379Z,48.02
2023-05-21T12:47:55.708Z,45.75
2023-05-21T12:51:03.781Z,47.75
2023-05-21T12:54:13.783Z,48.54
2023-05-21T12:57:22.158Z,46.89
2023-05-21T13:00:30.124Z,47.28
2023-05-21T13:03:38.590Z,50.29
2023-05-21T13:06:48.637Z,49.67
2023-05-21T13:09:56.788Z,48.96
2023-05-21T13:13:05.793Z,47.85
2023-05-21T13:16:15.851Z,47.56
2023-05-21T13:19:23.870Z,47.06
2023-05-21T13:22:32.540Z,46.77
2023-05-21T13:25:42.643Z,46.00
2023-05-21T13:28:51.333Z,47.43
2023-05-21T13:31:59.451Z,46.91
2023-05-21T13:35:09.397Z,47.23
2023-05-21T13:38:17.120Z,47.75
2023-05-21T13:41:25.723Z,47.55
2023-05-21T13:44:34.308Z,47.33
2023-05-21T13:47:45.038Z,47.41
2023-05-21T13:50:53.535Z,46.45
2023-05-21T13:54:01.339Z,45.84
2023-05-21T13:57:10.996Z,46.06
2023-05-21T14:00:19.628Z,46.47
2023-05-21T14:03:28.519Z,46.20
2023-05-21T14:06:37.655Z,45.02
2023-05-21T14:09:45.848Z,46.20
2023-05-21T14:12:59.225Z,45.14
2023-05-21T14:16:02.367Z,45.02
2023-05-21T14:19:11.158Z,45.56
2023-05-21T14:22:10.804Z,44.62
2023-05-21T14:25:18.670Z,44.76
2023-05-21T14:28:28.830Z,42.94
2023-05-21T14:31:38.045Z,42.85
2023-05-21T14:34:46.834Z,43.65
2023-05-21T14:37:57.647Z,43.55
2023-05-21T14:41:06.122Z,42.63
2023-05-21T14:44:14.076Z,41.61
2023-05-21T14:47:24.103Z,43.29
2023-05-21T14:50:33.101Z,42.24
2023-05-21T14:53:41.714Z,41.69
2023-05-21T14:56:52.146Z,41.88
2023-05-21T14:59:59.908Z,41.49
2023-05-21T15:03:08.631Z,42.96
2023-05-21T15:06:18.366Z,42.53
2023-05-21T15:09:26.619Z,42.80
2023-05-21T15:12:34.725Z,42.10
2023-05-21T15:15:42.881Z,41.41
2023-05-21T15:18:53.042Z,41.64
2023-05-21T15:22:01.744Z,42.25
2023-05-21T15:25:10.409Z,43.14
2023-05-21T15:28:20.330Z,43.14
2023-05-21T15:31:28.037Z,40.48
2023-05-21T15:34:36.755Z,40.88
2023-05-21T15:37:46.956Z,42.53
2023-05-21T15:40:54.595Z,41.17
2023-05-21T15:44:03.833Z,41.96
2023-05-21T15:47:13.424Z,41.74
2023-05-21T15:50:21.621Z,42.33
2023-05-21T15:53:29.559Z,41.47
2023-05-21T15:56:38.334Z,41.88
2023-05-21T15:59:47.680Z,42.38
2023-05-21T16:02:56.372Z,41.90
2023-05-21T16:06:04.622Z,43.40
2023-05-21T16:09:14.124Z,42.89
2023-05-21T16:12:22.530Z,43.01
2023-05-21T16:15:30.970Z,43.10
2023-05-21T16:18:41.142Z,43.99
2023-05-21T16:21:49.474Z,44.38
2023-05-21T16:24:57.912Z,44.82
2023-05-21T16:28:07.452Z,44.53
2023-05-21T16:31:15.677Z,45.24
2023-05-21T16:34:24.290Z,44.76
2023-05-21T16:37:33.434Z,45.18
2023-05-21T16:40:41.723Z,44.89
2023-05-21T16:43:50.322Z,46.09
2023-05-21T16:46:57.917Z,46.91
2023-05-21T16:50:08.438Z,47.32
2023-05-21T16:53:16.403Z,47.22
2023-05-21T16:56:25.149Z,47.54
2023-05-21T16:59:34.525Z,47.94
2023-05-21T17:02:42.971Z,48.03
2023-05-21T17:05:50.953Z,48.46
2023-05-21T17:07:38.658Z,48.46
2023-05-21T17:10:48.693Z,48.16
2023-05-21T17:13:56.774Z,48.16
2023-05-21T17:17:05.415Z,49.07
2023-05-21T17:20:15.841Z,49.57
2023-05-21T17:23:23.938Z,49.77
2023-05-21T17:26:32.352Z,49.57
2023-05-21T17:29:41.903Z,49.87
2023-05-21T17:32:50.111Z,50.78
2023-05-21T17:35:59.007Z,49.99
2023-05-21T17:39:11.059Z,51.00
2023-05-21T17:42:09.345Z,51.72
2023-05-21T17:45:17.569Z,51.23
2023-05-21T17:48:25.618Z,51.75
2023-05-21T17:52:14.137Z,52.04
2023-05-21T17:55:23.249Z,52.17
2023-05-21T17:58:31.457Z,52.26
2023-05-21T18:01:41.574Z,52.00
2023-05-21T18:04:49.996Z,52.39
2023-05-21T18:07:58.235Z,52.61
2023-05-21T18:11:07.793Z,52.02
2023-05-21T18:14:16.189Z,52.81
2023-05-21T18:17:24.439Z,52.44
2023-05-21T18:20:34.967Z,52.54
2023-05-21T18:23:42.837Z,52.86
2023-05-21T18:26:51.505Z,52.67
2023-05-21T18:30:01.071Z,53.09
2023-05-21T18:33:09.672Z,53.09
2023-05-21T18:36:18.080Z,53.91
2023-05-21T18:39:27.164Z,53.81
2023-05-21T18:42:35.895Z,55.30
2023-05-21T18:45:45.195Z,56.42
2023-05-21T18:48:52.859Z,57.64
2023-05-21T18:52:02.740Z,56.98
2023-05-21T18:55:10.947Z,57.77
2023-05-21T18:58:19.095Z,56.70
2023-05-21T19:01:29.921Z,58.40
2023-05-21T19:04:38.226Z,58.20
2023-05-21T19:07:46.876Z,57.63
2023-05-21T19:10:56.970Z,57.82
2023-05-21T19:14:06.223Z,57.86
2023-05-21T19:17:14.404Z,57.65
2023-05-21T19:20:24.137Z,57.35
2023-05-21T19:23:44.619Z,57.76
2023-05-21T19:26:38.156Z,58.15
2023-05-21T19:29:47.155Z,59.28
2023-05-21T19:32:57.118Z,58.98
2023-05-21T19:36:05.251Z,59.41
2023-05-21T19:39:14.148Z,59.61
2023-05-21T19:42:23.813Z,59.51
2023-05-21T19:45:32.394Z,59.61
2023-05-21T19:48:40.197Z,59.81
2023-05-21T19:51:50.037Z,60.31
2023-05-21T19:54:58.090Z,60.31
2023-05-21T19:58:06.784Z,60.83
2023-05-21T20:01:15.977Z,61.24
2023-05-21T20:04:24.733Z,61.73
2023-05-21T20:07:33.402Z,61.83
2023-05-21T20:10:42.033Z,61.93
2023-05-21T20:13:52.402Z,62.26
2023-05-21T20:17:00.332Z,62.46
2023-05-21T20:20:09.132Z,62.56
2023-05-21T20:23:18.622Z,62.86
2023-05-21T20:26:27.374Z,62.99
2023-05-21T20:29:36.214Z,62.89
2023-05-21T20:32:45.803Z,62.70
2023-05-21T20:35:54.192Z,62.92
2023-05-21T20:39:03.285Z,62.52
2023-05-21T20:42:12.891Z,62.32
2023-05-21T20:45:21.482Z,62.42
2023-05-21T20:48:29.201Z,62.45
2023-05-21T20:51:39.594Z,62.35
2023-05-21T20:54:48.162Z,62.05
2023-05-21T20:57:56.467Z,61.75
2023-05-21T21:01:05.717Z,61.55
2023-05-21T21:04:15.759Z,61.45
2023-05-21T21:07:24.672Z,61.15
2023-05-21T21:10:33.258Z,61.55
2023-05-21T21:13:42.414Z,61.58
2023-05-21T21:16:51.815Z,61.68
2023-05-21T21:20:00.419Z,62.38
2023-05-21T21:23:09.838Z,62.18
2023-05-21T21:26:18.316Z,62.71
2023-05-21T21:29:26.022Z,62.58
2023-05-21T21:32:36.309Z,62.61
2023-05-21T21:35:44.813Z,63.11
2023-05-21T21:38:52.936Z,63.01
2023-05-21T21:42:01.012Z,64.25
2023-05-21T21:45:11.214Z,65.68
2023-05-21T21:48:19.667Z,67.11
2023-05-21T21:51:28.680Z,68.15
2023-05-21T21:54:38.200Z,67.88
2023-05-21T21:57:46.683Z,68.08
2023-05-21T22:00:54.808Z,68.68
2023-05-21T22:04:03.918Z,68.79
2023-05-21T22:07:12.368Z,67.48
2023-05-21T22:10:19.696Z,67.38
2023-05-21T22:13:29.998Z,66.98
2023-05-21T22:16:38.171Z,66.44
2023-05-21T22:19:45.808Z,66.14
2023-05-21T22:22:55.473Z,66.11
2023-05-21T22:26:03.545Z,66.11
2023-05-21T22:29:10.932Z,66.01
2023-05-21T22:32:17.851Z,66.21
2023-05-21T22:35:27.072Z,66.21
2023-05-21T22:38:34.985Z,66.31
2023-05-21T22:41:42.129Z,66.52
2023-05-21T22:44:50.870Z,66.82
2023-05-21T22:47:59.419Z,66.95
2023-05-21T22:51:07.773Z,67.45
2023-05-21T22:54:17.747Z,68.95
2023-05-21T22:57:26.350Z,70.12
2023-05-21T23:00:34.473Z,70.32
2023-05-21T23:03:45.211Z,70.83
2023-05-21T23:06:53.690Z,71.16
2023-05-21T23:10:02.495Z,71.36
2023-05-21T23:13:10.436Z,71.56
2023-05-21T23:16:20.910Z,71.87
2023-05-21T23:19:29.748Z,71.97
2023-05-21T23:22:38.070Z,72.87
2023-05-21T23:25:47.679Z,72.71
2023-05-21T23:28:56.441Z,72.81
2023-05-21T23:32:04.192Z,73.00
2023-05-21T23:35:14.247Z,73.31
2023-05-21T23:38:22.413Z,72.50
2023-05-21T23:41:30.442Z,72.10
2023-05-21T23:44:40.554Z,71.56
2023-05-21T23:47:49.542Z,71.36
2023-05-21T23:50:57.691Z,71.16
2023-05-21T23:54:06.038Z,70.86
2023-05-21T23:57:15.079Z,70.89
